Time;durP1;ratioP1;P1;durP2;ratioP2;P2;SDS_P1;SDS_P2;PMS_P1;PMS_P2;Temp;Humidity;BMP_temperature;BMP_pressure;BME280_temperature;BME280_humidity;BME280_pressure;Samples;Min_cycle;Max_cycle;Signal;HPM_P1;HPM_P2
2023/08/19 00:00:15;;;;;;;17.02;12.13;;;;;;;26.87;74.48;101267.38;5065649;28;20029;-49
2023/08/19 00:02:42;;;;;;;16.25;11.48;;;;;;;27.15;73.41;101274.06;5050136;28;20043;-46
2023/08/19 00:05:08;;;;;;;15.40;11.65;;;;;;;27.09;73.56;101269.91;5049445;28;20032;-50
2023/08/19 00:07:33;;;;;;;17.00;12.65;;;;;;;27.36;72.34;101265.88;5049662;28;20460;-50
2023/08/19 00:10:01;;;;;;;17.90;12.45;;;;;;;27.01;73.85;101267.63;5049990;28;20033;-45
2023/08/19 00:12:27;;;;;;;16.33;11.75;;;;;;;27.20;73.16;101256.84;5049706;28;20417;-48
2023/08/19 00:14:54;;;;;;;17.42;11.60;;;;;;;27.32;72.25;101258.94;5049495;28;20037;-47
2023/08/19 00:17:20;;;;;;;18.52;12.32;;;;;;;26.87;74.53;101261.16;5049560;28;20040;-46
2023/08/19 00:19:45;;;;;;;18.50;12.52;;;;;;;27.09;73.57;101263.66;5048505;28;20037;-43
2023/08/19 00:22:12;;;;;;;20.27;12.25;;;;;;;27.01;74.20;101264.06;5049845;28;20033;-47
2023/08/19 00:24:37;;;;;;;15.95;11.45;;;;;;;27.03;74.25;101263.03;5049783;28;20037;-44
2023/08/19 00:27:03;;;;;;;16.73;11.93;;;;;;;26.98;74.45;101258.84;5050854;28;20154;-46
2023/08/19 00:29:28;;;;;;;16.50;12.25;;;;;;;27.03;74.04;101255.00;5049281;28;20037;-44
2023/08/19 00:31:54;;;;;;;16.55;12.35;;;;;;;26.76;76.12;101242.94;5048799;28;20116;-44
2023/08/19 00:34:19;;;;;;;17.48;12.27;;;;;;;26.79;74.75;101245.47;5049431;28;20056;-44
2023/08/19 00:36:44;;;;;;;14.55;12.05;;;;;;;27.05;74.10;101247.78;5050927;28;20081;-43
2023/08/19 00:39:10;;;;;;;16.42;11.82;;;;;;;27.14;74.18;101242.94;5050142;28;20025;-45
2023/08/19 00:41:35;;;;;;;17.35;12.43;;;;;;;27.03;74.80;101241.63;5049144;28;20061;-48
2023/08/19 00:44:01;;;;;;;16.65;11.50;;;;;;;26.97;74.23;101235.69;5049216;28;20154;-48
2023/08/19 00:46:26;;;;;;;20.08;12.65;;;;;;;26.94;75.05;101230.53;5049100;28;20045;-46
2023/08/19 00:48:52;;;;;;;15.93;12.02;;;;;;;27.00;74.34;101228.41;5048133;28;20044;-44
2023/08/19 00:51:18;;;;;;;17.00;12.52;;;;;;;26.77;75.38;101225.97;5048954;28;20064;-46
2023/08/19 00:53:44;;;;;;;15.75;12.20;;;;;;;27.11;74.55;101221.66;5064402;28;20745;-45
2023/08/19 00:56:10;;;;;;;16.00;11.73;;;;;;;26.88;74.86;101223.66;5049720;28;20033;-47
2023/08/19 00:58:35;;;;;;;18.48;12.57;;;;;;;27.09;74.37;101215.50;5049100;28;20029;-45
2023/08/19 01:01:01;;;;;;;17.30;12.50;;;;;;;26.79;75.50;101215.16;5049235;28;20044;-45
2023/08/19 01:03:26;;;;;;;16.00;12.10;;;;;;;27.22;73.69;101211.28;5048969;28;20041;-47
2023/08/19 01:06:22;;;;;;;16.73;12.40;;;;;;;27.07;74.23;101220.94;5049077;28;20033;-43
2023/08/19 01:09:10;;;;;;;17.83;13.18;;;;;;;27.17;74.14;101218.66;5071242;28;20155;-50
2023/08/19 01:11:55;;;;;;;16.58;12.40;;;;;;;27.30;73.38;101212.63;5070307;28;20028;-51
2023/08/19 01:14:49;;;;;;;18.75;13.25;;;;;;;26.88;75.35;101206.72;5069333;28;20452;-50
2023/08/19 01:17:21;;;;;;;17.23;11.93;;;;;;;27.24;73.66;101212.94;5068975;28;20127;-49
2023/08/19 01:19:47;;;;;;;21.38;12.38;;;;;;;27.18;73.86;101210.56;5069230;28;20041;-45
2023/08/19 01:22:21;;;;;;;18.60;12.32;;;;;;;26.98;74.77;101208.88;5068779;28;20131;-50
2023/08/19 01:24:46;;;;;;;18.58;13.02;;;;;;;26.90;75.29;101211.06;5069621;28;20041;-44
2023/08/19 01:27:25;;;;;;;17.73;12.77;;;;;;;26.83;75.20;101203.41;5069521;28;20052;-46
2023/08/19 01:29:51;;;;;;;17.73;12.48;;;;;;;26.99;74.87;101199.03;5069692;28;20072;-46
2023/08/19 01:32:18;;;;;;;17.48;12.68;;;;;;;26.81;75.37;101200.78;5068684;28;20174;-47
2023/08/19 01:34:45;;;;;;;19.23;13.20;;;;;;;26.60;75.94;101201.81;5068361;28;20148;-51
2023/08/19 01:37:21;;;;;;;17.90;13.43;;;;;;;26.94;75.47;101201.97;5068760;28;20458;-50
2023/08/19 01:39:48;;;;;;;19.05;12.95;;;;;;;27.09;74.24;101199.44;5068904;28;20042;-45
2023/08/19 01:42:16;;;;;;;18.00;12.50;;;;;;;27.19;74.05;101198.06;5071568;28;20067;-47
2023/08/19 01:44:43;;;;;;;18.70;13.10;;;;;;;27.24;73.90;101198.69;5072171;28;20578;-49
2023/08/19 01:47:16;;;;;;;19.17;13.40;;;;;;;27.09;74.55;101189.59;5072984;28;20502;-49
2023/08/19 01:49:45;;;;;;;17.13;12.70;;;;;;;26.96;74.96;101194.69;5052750;28;20614;-50
2023/08/19 01:52:12;;;;;;;19.00;12.90;;;;;;;27.05;74.95;101196.06;5053252;28;20037;-44
2023/08/19 01:54:38;;;;;;;17.75;12.52;;;;;;;26.80;76.15;101191.03;5072182;28;20371;-47
2023/08/19 01:57:03;;;;;;;17.10;12.10;;;;;;;27.22;74.02;101198.75;5073267;28;20035;-45
2023/08/19 01:59:29;;;;;;;20.60;12.80;;;;;;;26.86;75.35;101192.53;5072663;28;20041;-44
2023/08/19 02:01:54;;;;;;;20.52;13.18;;;;;;;26.64;76.68;101193.59;5073171;28;20025;-44
2023/08/19 02:04:19;;;;;;;18.15;12.68;;;;;;;26.94;75.23;101185.03;5072159;28;20037;-43
2023/08/19 02:06:45;;;;;;;17.98;12.98;;;;;;;26.52;76.62;101188.81;5073096;28;20064;-45
2023/08/19 02:09:10;;;;;;;17.48;12.52;;;;;;;26.89;75.59;101182.59;5073300;28;20109;-45
2023/08/19 02:11:35;;;;;;;18.45;13.10;;;;;;;27.11;74.74;101184.19;5072430;28;20052;-48
2023/08/19 02:14:01;;;;;;;18.30;12.93;;;;;;;26.85;75.67;101174.72;5071955;28;20056;-45
2023/08/19 02:16:26;;;;;;;17.42;12.88;;;;;;;26.84;75.79;101176.53;5071932;28;20036;-48
2023/08/19 02:18:52;;;;;;;19.58;12.57;;;;;;;26.80;76.14;101172.28;5072306;28;20028;-48
2023/08/19 02:21:17;;;;;;;18.73;12.35;;;;;;;27.00;75.18;101176.69;5071689;28;20067;-46
2023/08/19 02:23:42;;;;;;;19.20;12.95;;;;;;;27.13;74.55;101171.59;5071785;28;20110;-44
2023/08/19 02:26:07;;;;;;;17.92;13.15;;;;;;;26.91;75.48;101163.75;5072942;28;20066;-44
2023/08/19 02:28:33;;;;;;;16.92;12.85;;;;;;;27.05;74.50;101164.81;5072615;28;20043;-45
2023/08/19 02:31:04;;;;;;;19.35;12.90;;;;;;;26.86;75.52;101163.97;5073337;28;20040;-51
2023/08/19 02:33:29;;;;;;;16.38;12.30;;;;;;;26.98;75.23;101163.38;5073035;28;20028;-48
2023/08/19 02:35:55;;;;;;;17.35;12.68;;;;;;;27.21;74.00;101156.00;5071807;28;20041;-47
2023/08/19 02:38:20;;;;;;;19.10;12.50;;;;;;;27.14;74.43;101149.25;5072147;28;20044;-43
2023/08/19 02:40:50;;;;;;;17.67;12.35;;;;;;;27.24;74.19;101146.00;5072510;28;20234;-47
2023/08/19 02:43:16;;;;;;;19.38;13.13;;;;;;;26.84;75.69;101152.47;5073413;28;20451;-48
2023/08/19 02:45:41;;;;;;;16.85;11.98;;;;;;;27.04;74.81;101162.22;5073116;28;20116;-49
2023/08/19 02:48:07;;;;;;;18.08;12.88;;;;;;;26.80;75.79;101150.91;5073425;28;20041;-44
2023/08/19 02:50:32;;;;;;;18.20;13.15;;;;;;;26.52;77.02;101142.50;5071994;28;20036;-47
2023/08/19 02:52:58;;;;;;;18.20;12.82;;;;;;;26.94;75.60;101142.22;5070886;28;20040;-45
2023/08/19 02:55:23;;;;;;;17.83;12.50;;;;;;;26.81;75.88;101136.59;5070607;28;20064;-50
2023/08/19 02:57:48;;;;;;;17.48;12.15;;;;;;;27.29;73.69;101143.97;5071924;28;20066;-43
2023/08/19 03:00:15;;;;;;;16.60;12.00;;;;;;;27.22;74.29;101149.69;5071258;28;20036;-48
2023/08/19 03:02:40;;;;;;;15.55;11.75;;;;;;;27.24;74.01;101148.69;5072596;28;20420;-48
2023/08/19 03:05:06;;;;;;;20.35;12.35;;;;;;;27.23;74.26;101148.75;5071509;28;20033;-48
2023/08/19 03:07:33;;;;;;;18.67;12.70;;;;;;;26.70;76.62;101154.97;5071389;28;20028;-46
2023/08/19 03:09:58;;;;;;;18.85;12.70;;;;;;;26.64;76.57;101145.44;5071272;28;20033;-47
2023/08/19 03:12:24;;;;;;;17.23;12.43;;;;;;;26.93;75.39;101127.97;5070405;28;20045;-46
2023/08/19 03:14:49;;;;;;;17.35;12.60;;;;;;;26.50;77.42;101113.16;5070784;28;20064;-47
2023/08/19 03:17:14;;;;;;;17.10;12.55;;;;;;;26.99;75.38;101098.22;5071090;28;20029;-51
2023/08/19 03:19:40;;;;;;;15.93;11.90;;;;;;;26.81;76.32;101095.59;5058920;28;20205;-46
2023/08/19 03:22:05;;;;;;;17.42;11.93;;;;;;;26.85;76.16;101102.50;5051271;28;20044;-51
2023/08/19 03:24:30;;;;;;;16.58;12.13;;;;;;;27.27;74.11;101100.34;5049983;28;20041;-47
2023/08/19 03:26:56;;;;;;;16.30;11.38;;;;;;;27.15;74.49;101100.97;5050972;28;20044;-44
2023/08/19 03:29:23;;;;;;;16.55;12.07;;;;;;;26.89;76.10;101113.03;5050352;28;20048;-49
2023/08/19 03:31:48;;;;;;;17.42;12.00;;;;;;;26.87;75.87;101125.56;5051556;28;20064;-48
2023/08/19 03:34:14;;;;;;;15.85;11.88;;;;;;;27.27;74.24;101139.63;5051190;28;20068;-48
2023/08/19 03:36:39;;;;;;;15.48;11.10;;;;;;;27.20;74.31;101139.06;5051892;28;20029;-48
2023/08/19 03:39:04;;;;;;;16.00;12.15;;;;;;;27.15;74.79;101138.44;5051806;28;20029;-49
2023/08/19 03:41:30;;;;;;;14.95;10.85;;;;;;;27.15;74.55;101140.25;5050573;28;20472;-49
2023/08/19 03:43:55;;;;;;;15.77;11.38;;;;;;;27.11;74.73;101133.34;5049466;28;20525;-46
2023/08/19 03:46:20;;;;;;;14.90;11.50;;;;;;;26.76;76.05;101143.97;5050635;28;20029;-45
2023/08/19 03:48:46;;;;;;;15.52;11.20;;;;;;;27.07;74.91;101140.66;5051342;28;20048;-48
2023/08/19 03:51:11;;;;;;;15.48;11.13;;;;;;;27.19;74.26;101148.06;5048999;28;20044;-48
2023/08/19 03:53:36;;;;;;;16.05;11.45;;;;;;;26.94;75.07;101147.56;5050768;28;20033;-46
2023/08/19 03:56:02;;;;;;;15.55;11.32;;;;;;;27.20;74.20;101148.94;5050569;28;20037;-44
2023/08/19 03:58:27;;;;;;;16.85;11.50;;;;;;;27.16;74.65;101153.56;5051421;28;20029;-47
2023/08/19 04:00:52;;;;;;;16.25;11.15;;;;;;;27.29;73.81;101152.00;5066170;28;20541;-45
2023/08/19 04:03:18;;;;;;;17.80;12.20;;;;;;;26.99;75.24;101151.75;5050453;28;20776;-44
2023/08/19 04:05:43;;;;;;;16.08;11.55;;;;;;;27.11;74.38;101142.22;5050736;28;20063;-47
2023/08/19 04:08:08;;;;;;;14.20;10.80;;;;;;;27.28;73.98;101152.06;5051826;28;20033;-45
2023/08/19 04:10:33;;;;;;;16.17;11.55;;;;;;;26.85;75.57;101148.84;5065879;28;20033;-47
2023/08/19 04:12:59;;;;;;;18.80;11.60;;;;;;;26.84;75.90;101138.22;5050266;28;20056;-48
2023/08/19 04:15:24;;;;;;;15.75;11.40;;;;;;;26.97;75.43;101142.06;5049152;28;20553;-43
2023/08/19 04:17:50;;;;;;;16.25;11.25;;;;;;;26.96;75.10;101145.66;5050322;28;20091;-48
2023/08/19 04:20:15;;;;;;;14.75;11.10;;;;;;;26.85;76.07;101147.97;5050511;28;20108;-46
2023/08/19 04:22:40;;;;;;;15.35;11.80;;;;;;;26.87;75.53;101143.44;5050536;28;20029;-47
2023/08/19 04:25:06;;;;;;;17.20;11.93;;;;;;;26.73;76.26;101149.47;5049641;28;20032;-49
2023/08/19 04:27:32;;;;;;;15.55;10.95;;;;;;;27.06;75.36;101141.59;5050338;28;20029;-48
2023/08/19 04:29:57;;;;;;;16.20;11.35;;;;;;;27.20;74.55;101146.25;5050584;28;20437;-44
2023/08/19 04:32:22;;;;;;;14.35;10.75;;;;;;;27.13;74.69;101137.69;5049687;28;20048;-45
2023/08/19 04:34:49;;;;;;;15.68;11.60;;;;;;;27.00;75.23;101142.78;5049318;28;20040;-43
2023/08/19 04:37:14;;;;;;;17.15;11.43;;;;;;;27.11;74.67;101144.91;5049373;28;20047;-47
2023/08/19 04:39:39;;;;;;;16.65;11.38;;;;;;;27.12;74.30;101141.28;5049521;28;20029;-46
2023/08/19 04:42:05;;;;;;;15.07;11.45;;;;;;;26.95;74.96;101146.63;5049785;28;20492;-45
2023/08/19 04:44:31;;;;;;;14.23;10.70;;;;;;;26.89;75.61;101149.63;5048846;28;20175;-46
2023/08/19 04:46:56;;;;;;;14.38;11.05;;;;;;;26.91;75.57;101151.25;5049986;28;20518;-45
2023/08/19 04:49:21;;;;;;;14.82;11.13;;;;;;;27.09;74.81;101153.94;5049159;28;20041;-43
2023/08/19 04:51:47;;;;;;;16.00;10.57;;;;;;;27.13;74.73;101152.88;5049984;28;20076;-48
2023/08/19 04:54:12;;;;;;;13.52;10.60;;;;;;;27.19;74.28;101136.50;5048826;28;20553;-45
2023/08/19 04:56:37;;;;;;;13.95;10.57;;;;;;;27.08;75.10;101136.19;5049949;28;20449;-46
2023/08/19 04:59:03;;;;;;;15.65;10.85;;;;;;;27.31;73.85;101155.47;5050215;28;20380;-45
2023/08/19 05:01:29;;;;;;;13.95;10.68;;;;;;;27.39;73.14;101139.84;5053077;28;20064;-43
2023/08/19 05:03:54;;;;;;;13.27;10.07;;;;;;;27.30;73.67;101144.84;5053214;28;20055;-45
2023/08/19 05:06:20;;;;;;;14.25;10.38;;;;;;;27.30;73.75;101147.50;5053035;28;20048;-45
2023/08/19 05:08:46;;;;;;;13.63;10.05;;;;;;;27.42;73.30;101147.75;5050567;28;20041;-49
2023/08/19 05:11:11;;;;;;;14.88;9.93;;;;;;;27.63;72.66;101150.28;5049660;28;20041;-49
2023/08/19 05:13:36;;;;;;;12.85;10.02;;;;;;;27.57;72.52;101164.00;5050194;28;20044;-48
2023/08/19 05:16:02;;;;;;;13.75;9.63;;;;;;;27.59;72.49;101167.44;5050592;28;20064;-50
2023/08/19 05:18:28;;;;;;;14.77;10.20;;;;;;;27.54;73.04;101174.84;5053509;28;20068;-46
2023/08/19 05:20:53;;;;;;;13.63;9.82;;;;;;;27.48;73.47;101162.63;5053672;28;20036;-45
2023/08/19 05:23:18;;;;;;;13.15;9.70;;;;;;;27.50;73.30;101173.25;5052984;28;20547;-46
2023/08/19 05:25:44;;;;;;;11.65;9.38;;;;;;;27.52;73.22;101160.66;5052784;28;20499;-43
2023/08/19 05:28:10;;;;;;;12.20;8.98;;;;;;;27.48;72.89;101164.44;5053029;28;20037;-47
2023/08/19 05:30:35;;;;;;;13.63;9.65;;;;;;;27.10;74.58;101161.91;5052860;28;20025;-48
2023/08/19 05:33:01;;;;;;;13.05;9.90;;;;;;;27.34;73.54;101165.13;5053088;28;20090;-50
2023/08/19 05:35:26;;;;;;;13.02;9.60;;;;;;;27.45;73.08;101168.13;5052172;28;20036;-46
2023/08/19 05:37:51;;;;;;;14.10;9.98;;;;;;;27.41;73.74;101169.22;5053580;28;20039;-48
2023/08/19 05:40:17;;;;;;;11.90;9.13;;;;;;;27.41;73.93;101172.78;5050946;28;20052;-45
2023/08/19 05:42:42;;;;;;;13.93;9.38;;;;;;;27.47;73.53;101182.31;5052808;28;20040;-47
2023/08/19 05:45:08;;;;;;;11.38;8.98;;;;;;;27.59;73.56;101181.69;5052154;28;20044;-46
2023/08/19 05:47:33;;;;;;;11.75;9.00;;;;;;;27.73;73.29;101180.97;5052304;28;20109;-45
2023/08/19 05:49:58;;;;;;;14.65;8.65;;;;;;;27.79;72.84;101177.97;5052778;28;20041;-45
2023/08/19 05:52:24;;;;;;;10.65;8.40;;;;;;;28.00;72.37;101181.28;5052185;28;20467;-46
2023/08/19 05:54:50;;;;;;;11.48;8.68;;;;;;;28.08;72.40;101187.97;5051811;28;20041;-44
2023/08/19 05:57:15;;;;;;;11.70;8.30;;;;;;;28.25;71.54;101193.31;5052286;28;20032;-45
2023/08/19 05:59:40;;;;;;;12.60;8.55;;;;;;;28.27;70.28;101190.56;5053195;28;20041;-45
2023/08/19 06:02:06;;;;;;;12.48;8.77;;;;;;;28.33;70.29;101209.00;5052479;28;20056;-44
2023/08/19 06:04:31;;;;;;;12.25;8.32;;;;;;;28.42;70.40;101205.78;5051414;28;20041;-45
2023/08/19 06:06:57;;;;;;;11.15;8.57;;;;;;;28.62;69.96;101204.69;5052599;28;20041;-48
2023/08/19 06:09:23;;;;;;;11.27;8.40;;;;;;;28.79;68.98;101201.09;5050920;28;20048;-48
2023/08/19 06:11:50;;;;;;;10.88;7.90;;;;;;;29.09;67.94;101193.09;5052080;28;20037;-45
2023/08/19 06:14:16;;;;;;;12.77;8.50;;;;;;;29.17;67.61;101204.22;5051216;28;20083;-47
2023/08/19 06:16:42;;;;;;;13.20;9.00;;;;;;;29.17;66.38;101199.72;5052396;28;20470;-50
2023/08/19 06:19:07;;;;;;;10.48;8.38;;;;;;;29.43;67.62;101211.63;5052228;28;20052;-45
2023/08/19 06:21:33;;;;;;;11.57;8.82;;;;;;;30.11;65.08;101222.72;5051637;28;20029;-49
2023/08/19 06:23:58;;;;;;;13.57;9.77;;;;;;;30.51;61.68;101216.56;5051520;28;20037;-45
2023/08/19 06:26:25;;;;;;;13.02;9.90;;;;;;;30.48;62.15;101224.84;5051325;28;20163;-45
2023/08/19 06:28:50;;;;;;;14.80;9.70;;;;;;;30.28;62.96;101217.13;5051931;28;20033;-45
2023/08/19 06:31:16;;;;;;;12.45;9.60;;;;;;;30.03;63.61;101228.56;5051320;28;20072;-45
2023/08/19 06:33:42;;;;;;;11.43;8.98;;;;;;;29.94;64.42;101214.84;5051877;28;20029;-49
2023/08/19 06:36:10;;;;;;;10.45;8.38;;;;;;;29.93;64.35;101210.41;5052019;28;20044;-49
2023/08/19 06:38:41;;;;;;;14.98;9.10;;;;;;;29.56;65.22;101214.47;5051402;28;20025;-44
2023/08/19 06:41:11;;;;;;;11.70;8.88;;;;;;;29.37;66.78;101237.03;5051739;28;20461;-47
2023/08/19 06:43:38;;;;;;;12.63;8.57;;;;;;;29.24;67.50;101235.13;5051520;28;20037;-44
2023/08/19 06:46:05;;;;;;;11.48;8.57;;;;;;;29.19;67.61;101224.66;5051701;28;20032;-46
2023/08/19 06:48:32;;;;;;;12.95;8.52;;;;;;;28.98;68.38;101232.13;5052302;28;20214;-48
2023/08/19 06:50:58;;;;;;;12.32;8.18;;;;;;;28.96;68.49;101233.19;5052135;28;20090;-45
2023/08/19 06:53:23;;;;;;;11.43;8.40;;;;;;;28.54;70.65;101237.31;5051132;28;20036;-44
2023/08/19 06:56:11;;;;;;;12.63;8.43;;;;;;;28.68;70.63;101252.63;5051109;28;20041;-50
2023/08/19 06:58:41;;;;;;;11.93;7.65;;;;;;;28.73;70.29;101255.91;5051350;28;20068;-46
2023/08/19 07:01:14;;;;;;;11.35;7.72;;;;;;;28.77;69.82;101251.28;5050364;28;20094;-45
2023/08/19 07:03:39;;;;;;;10.88;7.82;;;;;;;28.76;70.09;101249.56;5051052;28;20029;-47
2023/08/19 07:06:07;;;;;;;10.95;7.78;;;;;;;28.84;70.18;101237.44;5050876;28;20068;-45
2023/08/19 07:08:36;;;;;;;12.57;7.95;;;;;;;28.80;70.68;101260.03;5050986;28;20521;-45
2023/08/19 07:11:02;;;;;;;11.18;8.00;;;;;;;28.91;70.41;101260.28;5051119;28;20044;-48
2023/08/19 07:13:28;;;;;;;9.52;7.32;;;;;;;29.08;69.34;101264.69;5050756;28;20040;-47
2023/08/19 07:16:00;;;;;;;17.35;7.88;;;;;;;29.28;69.26;101268.91;5050612;28;20076;-48
2023/08/19 07:18:27;;;;;;;10.82;7.65;;;;;;;29.18;68.52;101283.81;5050990;28;20033;-53
2023/08/19 07:20:54;;;;;;;11.80;8.25;;;;;;;29.37;68.54;101288.09;5050883;28;20411;-51
2023/08/19 07:23:23;;;;;;;12.80;7.18;;;;;;;29.43;68.07;101295.78;5050684;28;20053;-49
2023/08/19 07:25:50;;;;;;;10.52;7.80;;;;;;;29.19;68.81;101305.22;5050312;28;20106;-47
2023/08/19 07:28:17;;;;;;;10.90;7.53;;;;;;;28.99;69.24;101295.63;5048824;28;20044;-46
2023/08/19 07:30:43;;;;;;;12.02;7.70;;;;;;;29.02;69.43;101298.13;5050901;28;20063;-48
2023/08/19 07:33:10;;;;;;;10.48;7.30;;;;;;;29.08;68.81;101280.81;5050982;28;20029;-48
2023/08/19 07:35:35;;;;;;;12.63;7.63;;;;;;;28.92;69.60;101288.84;5049683;28;20151;-46
2023/08/19 07:38:01;;;;;;;11.07;7.35;;;;;;;29.01;69.57;101295.53;5050464;28;20036;-48
2023/08/19 07:40:26;;;;;;;10.82;7.22;;;;;;;29.11;69.04;101296.72;5049550;28;20041;-50
2023/08/19 07:42:52;;;;;;;11.43;7.57;;;;;;;28.39;71.99;101290.94;5050703;28;20109;-45
2023/08/19 07:45:17;;;;;;;11.82;7.47;;;;;;;28.43;72.49;101298.72;5049363;28;20029;-50
2023/08/19 07:47:42;;;;;;;10.18;7.18;;;;;;;28.63;71.46;101319.97;5049489;28;20510;-53
2023/08/19 07:50:08;;;;;;;12.43;7.03;;;;;;;28.94;70.50;101313.81;5050209;28;20063;-47
2023/08/19 07:52:35;;;;;;;13.45;8.10;;;;;;;28.98;69.48;101323.41;5050329;28;20045;-44
2023/08/19 07:55:00;;;;;;;9.98;7.43;;;;;;;29.49;68.66;101318.72;5049673;28;20044;-44
2023/08/19 07:57:25;;;;;;;12.80;8.32;;;;;;;29.75;67.18;101326.13;5050363;28;20033;-47
2023/08/19 07:59:51;;;;;;;15.88;9.70;;;;;;;30.06;65.63;101333.25;5050194;28;20064;-45
2023/08/19 08:02:16;;;;;;;14.48;8.75;;;;;;;29.54;68.15;101343.50;5049566;28;20037;-46
2023/08/19 08:04:43;;;;;;;12.93;8.90;;;;;;;29.50;68.06;101341.09;5050211;28;20109;-44
2023/08/19 08:07:08;;;;;;;22.80;10.30;;;;;;;29.38;68.05;101348.91;5051255;28;20048;-47
2023/08/19 08:09:33;;;;;;;15.90;9.50;;;;;;;29.26;66.73;101346.91;5050669;28;20036;-43
2023/08/19 08:11:59;;;;;;;14.82;9.70;;;;;;;29.58;67.07;101339.66;5050884;28;20617;-48
2023/08/19 08:14:25;;;;;;;16.60;9.15;;;;;;;30.24;64.42;101337.53;5050353;28;20059;-43
2023/08/19 08:16:51;;;;;;;15.48;9.27;;;;;;;30.43;63.89;101342.63;5051207;28;20130;-44
2023/08/19 08:19:16;;;;;;;12.00;8.63;;;;;;;30.27;64.47;101344.50;5050425;28;20041;-43
2023/08/19 08:21:41;;;;;;;13.68;8.70;;;;;;;29.97;65.15;101358.00;5050465;28;20036;-43
2023/08/19 08:24:07;;;;;;;15.00;8.52;;;;;;;30.41;62.52;101358.00;5050247;28;20469;-48
2023/08/19 08:26:32;;;;;;;11.40;7.60;;;;;;;30.40;63.04;101364.34;5050574;28;20035;-44
2023/08/19 08:28:57;;;;;;;11.52;6.90;;;;;;;30.21;62.43;101371.78;5050000;28;20495;-46
2023/08/19 08:31:23;;;;;;;9.32;6.45;;;;;;;30.43;61.92;101371.34;5048789;28;20490;-49
2023/08/19 08:33:49;;;;;;;9.15;6.47;;;;;;;29.59;64.10;101394.28;5047910;28;20552;-47
2023/08/19 08:36:14;;;;;;;9.02;5.65;;;;;;;29.62;63.08;101400.38;5049725;28;20071;-46
2023/08/19 08:38:39;;;;;;;9.18;5.90;;;;;;;29.75;63.46;101409.44;5049542;28;20032;-50
2023/08/19 08:41:06;;;;;;;8.48;5.32;;;;;;;30.12;60.55;101400.13;5049651;28;20032;-46
2023/08/19 08:43:33;;;;;;;8.27;5.40;;;;;;;29.82;60.60;101416.22;5049233;28;20079;-46
2023/08/19 08:45:59;;;;;;;6.75;4.30;;;;;;;29.33;60.58;101420.84;5049179;28;20060;-48
2023/08/19 08:48:28;;;;;;;6.28;4.45;;;;;;;29.56;59.85;101415.97;5049384;28;20095;-45
2023/08/19 08:50:55;;;;;;;6.20;3.90;;;;;;;28.97;59.30;101418.31;5049289;28;20045;-50
2023/08/19 08:53:20;;;;;;;4.65;3.67;;;;;;;28.71;59.41;101424.19;5048510;28;20041;-46
2023/08/19 08:55:47;;;;;;;6.32;4.15;;;;;;;28.71;60.02;101432.25;5048729;28;20043;-50
2023/08/19 08:58:12;;;;;;;5.68;3.75;;;;;;;28.83;59.20;101422.72;5048759;28;20044;-47
2023/08/19 09:00:38;;;;;;;7.38;6.05;;;;;;;29.29;58.27;101429.97;5049256;28;20037;-45
2023/08/19 09:03:06;;;;;;;5.70;3.88;;;;;;;29.16;57.28;101446.81;5049120;28;20415;-49
2023/08/19 09:05:35;;;;;;;7.00;4.00;;;;;;;28.91;58.72;101441.97;5048047;28;20040;-46
2023/08/19 09:08:03;;;;;;;6.55;3.90;;;;;;;28.91;59.24;101456.22;5049289;28;20040;-48
2023/08/19 09:10:33;;;;;;;8.10;4.05;;;;;;;29.24;58.92;101458.03;5048374;28;20039;-51
2023/08/19 09:12:59;;;;;;;5.88;4.22;;;;;;;29.25;61.53;101460.63;5049047;28;20033;-44
2023/08/19 09:15:28;;;;;;;8.00;4.30;;;;;;;29.59;59.43;101461.44;5048036;28;20550;-45
2023/08/19 09:17:55;;;;;;;5.70;4.13;;;;;;;29.47;58.35;101470.22;5049183;28;20033;-52
2023/08/19 09:20:21;;;;;;;4.85;3.58;;;;;;;29.14;57.36;101473.78;5049030;28;20422;-45
2023/08/19 09:22:49;;;;;;;8.60;4.30;;;;;;;29.31;58.72;101481.78;5049478;28;20259;-46
2023/08/19 09:25:14;;;;;;;6.32;4.00;;;;;;;29.19;57.68;101487.81;5048259;28;20067;-51
2023/08/19 09:27:40;;;;;;;7.97;3.85;;;;;;;29.47;56.83;101497.94;5049586;28;20040;-47
2023/08/19 09:30:06;;;;;;;8.32;3.85;;;;;;;29.08;57.70;101495.59;5049604;28;20041;-49
2023/08/19 09:32:35;;;;;;;7.10;3.70;;;;;;;29.05;58.10;101504.69;5048751;28;20037;-44
2023/08/19 09:35:05;;;;;;;6.40;3.90;;;;;;;28.67;57.66;101514.72;5048543;28;20037;-48
2023/08/19 09:37:32;;;;;;;6.10;4.03;;;;;;;28.89;57.89;101505.59;5048684;28;20487;-52
2023/08/19 09:39:58;;;;;;;7.80;4.28;;;;;;;28.59;58.21;101516.06;5048606;28;20091;-46
2023/08/19 09:42:23;;;;;;;6.93;4.30;;;;;;;28.81;58.25;101522.06;5048279;28;20440;-44
2023/08/19 09:44:49;;;;;;;6.80;4.10;;;;;;;28.91;58.66;101514.44;5048437;28;20071;-46
2023/08/19 09:47:14;;;;;;;6.20;3.95;;;;;;;29.02;59.45;101512.03;5048362;28;20041;-47
2023/08/19 09:49:39;;;;;;;8.10;4.57;;;;;;;29.23;57.60;101518.06;5048620;28;20053;-46
2023/08/19 09:52:05;;;;;;;7.18;4.20;;;;;;;28.64;59.07;101530.97;5048513;28;20411;-51
2023/08/19 09:54:30;;;;;;;5.90;3.92;;;;;;;28.56;57.74;101538.53;5047819;28;20656;-48
2023/08/19 09:56:58;;;;;;;6.00;4.03;;;;;;;28.47;58.41;101541.72;5048639;28;20377;-47
2023/08/19 09:59:26;;;;;;;9.27;5.00;;;;;;;27.71;60.39;101542.72;5048248;28;20033;-51
2023/08/19 10:01:56;;;;;;;8.43;4.80;;;;;;;27.94;60.92;101530.91;5049262;28;20123;-44
2023/08/19 10:04:22;;;;;;;8.63;4.75;;;;;;;28.09;60.27;101538.22;5051213;28;20033;-49
2023/08/19 10:06:51;;;;;;;9.48;5.10;;;;;;;27.95;61.49;101548.72;5050712;28;20048;-51
2023/08/19 10:09:23;;;;;;;9.98;5.30;;;;;;;27.95;61.54;101559.44;5051893;28;20515;-46
2023/08/19 10:11:52;;;;;;;8.30;5.53;;;;;;;28.17;60.68;101567.38;5052512;28;20557;-48
2023/08/19 10:14:22;;;;;;;8.90;5.15;;;;;;;28.30;60.66;101554.22;5051040;28;20064;-46
2023/08/19 10:16:50;;;;;;;8.35;4.85;;;;;;;28.71;60.75;101553.00;5052263;28;20588;-49
2023/08/19 10:19:20;;;;;;;9.77;5.30;;;;;;;29.08;59.99;101568.09;5051655;28;20033;-50
2023/08/19 10:21:49;;;;;;;8.68;5.30;;;;;;;29.50;58.66;101570.31;5052100;28;20503;-44
2023/08/19 10:24:18;;;;;;;8.45;5.13;;;;;;;29.03;59.54;101579.06;5051211;28;20041;-48
2023/08/19 10:26:48;;;;;;;12.40;5.75;;;;;;;29.63;58.21;101581.28;5052316;28;20172;-46
2023/08/19 10:29:13;;;;;;;10.93;5.80;;;;;;;29.88;57.28;101583.47;5051216;28;20075;-45
2023/08/19 10:31:40;;;;;;;11.52;5.70;;;;;;;29.96;57.29;101589.31;5051758;28;20057;-48
2023/08/19 10:34:22;;;;;;;9.95;5.97;;;;;;;30.54;55.84;101589.56;5051165;28;20032;-46
2023/08/19 10:37:09;;;;;;;9.88;6.20;;;;;;;30.94;53.57;101574.59;5058717;28;20036;-47
2023/08/19 10:39:35;;;;;;;9.73;6.45;;;;;;;31.07;53.86;101572.03;5051411;28;20438;-48
2023/08/19 10:42:01;;;;;;;10.18;6.30;;;;;;;30.64;55.16;101562.00;5051835;28;20048;-50
2023/08/19 10:44:31;;;;;;;10.13;6.00;;;;;;;30.25;55.90;101575.09;5050996;28;20032;-47
2023/08/19 10:47:10;;;;;;;9.65;6.03;;;;;;;29.92;56.73;101566.25;5051960;28;20532;-47
2023/08/19 10:49:36;;;;;;;8.30;5.40;;;;;;;30.30;55.93;101573.00;5051220;28;20029;-47
2023/08/19 10:52:04;;;;;;;19.00;6.15;;;;;;;29.68;59.00;101573.81;5051381;28;20545;-52
2023/08/19 10:54:41;;;;;;;11.00;5.72;;;;;;;29.18;61.06;101582.75;5049172;28;20048;-46
2023/08/19 10:57:10;;;;;;;17.83;6.38;;;;;;;29.31;60.67;101594.59;5051426;28;20033;-48
2023/08/19 10:59:37;;;;;;;11.82;5.90;;;;;;;29.28;60.17;101607.28;5051318;28;20033;-45
2023/08/19 11:02:04;;;;;;;12.02;6.10;;;;;;;29.24;59.35;101605.72;5051659;28;20495;-50
2023/08/19 11:04:30;;;;;;;8.60;5.43;;;;;;;28.41;62.24;101617.13;5051257;28;20470;-44
2023/08/19 11:06:57;;;;;;;12.93;5.53;;;;;;;28.78;60.89;101618.88;5051926;28;20033;-44
2023/08/19 11:09:24;;;;;;;7.15;4.97;;;;;;;28.93;60.38;101633.31;5049672;28;20041;-46
2023/08/19 11:11:50;;;;;;;7.55;4.60;;;;;;;28.95;58.71;101652.91;5050293;28;20095;-45